createdAt,value
2023-02-20T00:00:30.139Z,111.51
2023-02-20T00:01:30.112Z,116.10
2023-02-20T00:02:30.144Z,113.28
2023-02-20T00:03:30.157Z,113.14
2023-02-20T00:04:30.090Z,110.76
2023-02-20T00:05:30.089Z,114.22
2023-02-20T00:06:30.082Z,117.01
2023-02-20T00:07:30.094Z,116.02
2023-02-20T00:08:30.071Z,116.75
2023-02-20T00:09:30.079Z,118.18
2023-02-20T00:10:30.052Z,112.38
2023-02-20T00:11:30.048Z,112.08
2023-02-20T00:12:30.035Z,112.16
2023-02-20T00:13:30.033Z,114.61
2023-02-20T00:14:30.027Z,114.40
2023-02-20T00:15:30.047Z,115.53
2023-02-20T00:16:30.002Z,111.68
2023-02-20T00:17:29.994Z,114.09
2023-02-20T00:18:29.990Z,116.45
2023-02-20T00:19:29.985Z,110.77
2023-02-20T00:20:29.977Z,114.20
2023-02-20T00:21:29.971Z,116.54
2023-02-20T00:22:29.955Z,113.15
2023-02-20T00:23:29.964Z,111.45
2023-02-20T00:24:29.935Z,114.42
2023-02-20T00:25:29.950Z,116.05
2023-02-20T00:26:29.930Z,113.15
2023-02-20T00:27:29.926Z,114.55
2023-02-20T00:28:29.912Z,115.53
2023-02-20T00:29:29.909Z,111.29
2023-02-20T00:30:30.000Z,114.21
2023-02-20T00:31:29.951Z,112.12
2023-02-20T00:32:29.883Z,114.57
2023-02-20T00:33:29.886Z,113.51
2023-02-20T00:34:29.877Z,114.87
2023-02-20T00:35:29.861Z,109.94
2023-02-20T00:36:29.868Z,113.59
2023-02-20T00:37:29.846Z,115.47
2023-02-20T00:38:29.847Z,115.62
2023-02-20T00:39:29.836Z,115.54
2023-02-20T00:40:29.811Z,116.53
2023-02-20T00:41:29.815Z,115.61
2023-02-20T00:42:29.797Z,117.31
2023-02-20T00:43:29.790Z,115.91
2023-02-20T00:44:29.784Z,113.52
2023-02-20T00:45:29.772Z,111.29
2023-02-20T00:46:29.795Z,114.11
2023-02-20T00:47:29.764Z,110.11
2023-02-20T00:48:29.758Z,112.84
2023-02-20T00:49:29.748Z,112.92
2023-02-20T00:50:29.738Z,115.22
2023-02-20T00:51:29.734Z,113.68
2023-02-20T00:52:29.733Z,113.20
2023-02-20T00:53:29.737Z,114.80
2023-02-20T00:54:29.718Z,118.06
2023-02-20T00:55:29.708Z,111.00
2023-02-20T00:56:29.728Z,112.05
2023-02-20T00:57:29.698Z,116.84
2023-02-20T00:58:29.708Z,115.23
2023-02-20T00:59:29.694Z,113.05
2023-02-20T01:00:29.680Z,113.19
2023-02-20T01:01:29.698Z,114.01
2023-02-20T01:02:29.680Z,114.02
2023-02-20T01:03:29.677Z,109.47
2023-02-20T01:04:29.647Z,111.68
2023-02-20T01:05:29.626Z,112.49
2023-02-20T01:06:29.618Z,114.34
2023-02-20T01:07:29.622Z,113.06
2023-02-20T01:08:29.615Z,113.18
2023-02-20T01:09:29.618Z,112.90
2023-02-20T01:10:29.586Z,114.42
2023-02-20T01:11:29.590Z,114.15
2023-02-20T01:12:29.565Z,113.60
2023-02-20T01:13:29.570Z,111.45
2023-02-20T01:14:29.564Z,112.41
2023-02-20T01:15:29.545Z,110.88
2023-02-20T01:16:29.608Z,107.89
2023-02-20T01:17:29.547Z,108.10
2023-02-20T01:18:29.518Z,108.89
2023-02-20T01:19:29.531Z,109.48
2023-02-20T01:20:29.516Z,110.68
2023-02-20T01:21:29.508Z,111.76
2023-02-20T01:22:29.504Z,111.33
2023-02-20T01:23:29.515Z,111.28
2023-02-20T01:24:29.507Z,114.23
2023-02-20T01:25:29.517Z,109.20
2023-02-20T01:26:29.493Z,112.19
2023-02-20T01:27:29.486Z,113.54
2023-02-20T01:28:29.483Z,105.36
2023-02-20T01:29:29.488Z,97.77
2023-02-20T01:30:29.535Z,99.51
2023-02-20T01:31:29.625Z,104.09
2023-02-20T01:32:29.467Z,108.14
2023-02-20T01:33:29.463Z,102.91
2023-02-20T01:34:29.455Z,93.91
2023-02-20T01:35:29.461Z,91.61
2023-02-20T01:36:29.457Z,98.45
2023-02-20T01:37:29.448Z,101.03
2023-02-20T01:38:29.443Z,101.32
2023-02-20T01:39:29.443Z,98.01
2023-02-20T01:40:29.438Z,91.24
2023-02-20T01:41:29.441Z,92.88
2023-02-20T01:42:29.441Z,97.41
2023-02-20T01:43:29.435Z,99.62
2023-02-20T01:44:29.436Z,99.49
2023-02-20T01:45:29.425Z,89.39
2023-02-20T01:46:29.492Z,89.92
2023-02-20T01:47:29.425Z,91.30
2023-02-20T01:48:29.428Z,97.48
2023-02-20T01:49:29.420Z,99.14
2023-02-20T01:50:29.417Z,89.70
2023-02-20T01:51:29.419Z,82.87
2023-02-20T01:52:29.424Z,84.32
2023-02-20T01:53:29.421Z,91.37
2023-02-20T01:54:29.423Z,92.03
2023-02-20T01:55:29.422Z,91.86
2023-02-20T01:56:29.424Z,84.15
2023-02-20T01:57:29.429Z,81.73
2023-02-20T01:58:29.437Z,84.29
2023-02-20T01:59:29.472Z,89.49
2023-02-20T02:00:29.504Z,91.35
2023-02-20T02:01:29.442Z,91.19
2023-02-20T02:02:29.444Z,80.41
2023-02-20T02:03:29.458Z,75.91
2023-02-20T02:04:29.467Z,79.85
2023-02-20T02:05:29.461Z,80.76
2023-02-20T02:06:29.458Z,85.74
2023-02-20T02:07:29.492Z,85.80
2023-02-20T02:08:29.464Z,80.76
2023-02-20T02:09:29.467Z,78.57
2023-02-20T02:10:29.463Z,80.75
2023-02-20T02:11:29.461Z,85.86
2023-02-20T02:12:29.461Z,84.37
2023-02-20T02:13:29.456Z,77.28
2023-02-20T02:14:29.465Z,75.21
2023-02-20T02:15:29.454Z,78.57
2023-02-20T02:16:29.463Z,81.77
2023-02-20T02:17:29.453Z,84.56
2023-02-20T02:18:29.444Z,80.22
2023-02-20T02:19:29.454Z,76.66
2023-02-20T02:20:29.458Z,72.87
2023-02-20T02:21:29.459Z,78.47
2023-02-20T02:22:29.495Z,83.82
2023-02-20T02:23:29.462Z,84.06
2023-02-20T02:24:29.466Z,78.97
2023-02-20T02:25:29.466Z,70.65
2023-02-20T02:26:29.466Z,74.28
2023-02-20T02:27:29.458Z,79.14
2023-02-20T02:28:29.451Z,82.11
2023-02-20T02:29:29.456Z,80.52
2023-02-20T02:30:29.526Z,73.13
2023-02-20T02:31:29.650Z,72.43
2023-02-20T02:32:29.619Z,69.06
2023-02-20T02:33:29.674Z,75.88
2023-02-20T02:34:29.453Z,79.34
2023-02-20T02:35:29.456Z,77.58
2023-02-20T02:36:29.457Z,70.27
2023-02-20T02:37:29.454Z,66.08
2023-02-20T02:38:29.450Z,74.82
2023-02-20T02:39:29.459Z,76.18
2023-02-20T02:40:29.469Z,82.31
2023-02-20T02:41:29.554Z,74.88
2023-02-20T02:42:29.492Z,66.73
2023-02-20T02:43:29.467Z,64.98
2023-02-20T02:44:29.475Z,71.00
2023-02-20T02:45:29.502Z,75.83
2023-02-20T02:46:29.474Z,76.47
2023-02-20T02:47:29.488Z,69.67
2023-02-20T02:48:29.504Z,59.28
2023-02-20T02:49:29.481Z,64.59
2023-02-20T02:50:29.470Z,65.28
2023-02-20T02:51:29.482Z,70.70
2023-02-20T02:52:29.471Z,69.57
2023-02-20T02:53:29.475Z,57.50
2023-02-20T02:54:29.476Z,55.58
2023-02-20T02:55:29.505Z,60.24
2023-02-20T02:56:29.497Z,66.77
2023-02-20T02:57:29.514Z,70.51
2023-02-20T02:58:29.514Z,67.03
2023-02-20T02:59:29.518Z,58.98
2023-02-20T03:00:29.521Z,58.11
2023-02-20T03:01:29.523Z,63.08
2023-02-20T03:02:29.539Z,67.79
2023-02-20T03:03:29.526Z,68.09
2023-02-20T03:04:29.527Z,60.28
2023-02-20T03:05:29.535Z,55.89
2023-02-20T03:06:29.540Z,55.80
2023-02-20T03:07:29.543Z,65.05
2023-02-20T03:08:29.535Z,66.04
2023-02-20T03:09:29.537Z,64.00
2023-02-20T03:10:29.538Z,55.29
2023-02-20T03:11:29.540Z,52.53
2023-02-20T03:12:29.546Z,58.87
2023-02-20T03:13:29.545Z,62.92
2023-02-20T03:14:29.544Z,67.25
2023-02-20T03:15:29.549Z,61.26
2023-02-20T03:16:29.581Z,56.54
2023-02-20T03:17:29.554Z,55.49
2023-02-20T03:18:29.551Z,59.48
2023-02-20T03:19:29.565Z,68.24
2023-02-20T03:20:29.556Z,64.75
2023-02-20T03:21:29.567Z,61.94
2023-02-20T03:22:29.567Z,61.57
2023-02-20T03:23:29.570Z,60.81
2023-02-20T03:24:29.589Z,63.09
2023-02-20T03:25:29.571Z,66.49
2023-02-20T03:26:29.595Z,68.53
2023-02-20T03:27:29.583Z,60.22
2023-02-20T03:28:29.575Z,58.28
2023-02-20T03:29:29.572Z,62.29
2023-02-20T03:30:29.698Z,64.73
2023-02-20T03:31:29.714Z,68.82
2023-02-20T03:32:29.579Z,66.85
2023-02-20T03:33:29.584Z,62.20
2023-02-20T03:34:29.585Z,63.87
2023-02-20T03:35:29.591Z,65.13
2023-02-20T03:36:29.601Z,65.78
2023-02-20T03:37:29.612Z,69.09
2023-02-20T03:38:29.606Z,66.03
2023-02-20T03:39:29.623Z,66.23
2023-02-20T03:40:29.605Z,66.28
2023-02-20T03:41:29.617Z,67.44
2023-02-20T03:42:29.614Z,69.52
2023-02-20T03:43:29.631Z,71.71
2023-02-20T03:44:29.641Z,69.67
2023-02-20T03:45:29.636Z,64.07
2023-02-20T03:46:29.639Z,64.64
2023-02-20T03:47:29.649Z,68.96
2023-02-20T03:48:29.664Z,67.91
2023-02-20T03:49:29.672Z,69.42
2023-02-20T03:50:29.663Z,69.45
2023-02-20T03:51:29.678Z,68.42
2023-02-20T03:52:29.676Z,65.36
2023-02-20T03:53:29.680Z,65.09
2023-02-20T03:54:29.686Z,65.70
2023-02-20T03:55:29.688Z,71.13
2023-02-20T03:56:29.705Z,66.63
2023-02-20T03:57:29.697Z,64.95
2023-02-20T03:58:29.696Z,65.24
2023-02-20T03:59:29.698Z,65.79
2023-02-20T04:00:29.693Z,67.48
2023-02-20T04:01:29.732Z,70.08
2023-02-20T04:02:29.757Z,67.78
2023-02-20T04:03:29.715Z,60.60
2023-02-20T04:04:29.714Z,60.43
2023-02-20T04:05:29.723Z,64.94
2023-02-20T04:06:29.719Z,65.55
2023-02-20T04:07:29.724Z,68.93
2023-02-20T04:08:29.729Z,65.86
2023-02-20T04:09:29.736Z,64.56
2023-02-20T04:10:29.734Z,63.59
2023-02-20T04:11:29.732Z,63.85
2023-02-20T04:12:29.753Z,64.90
2023-02-20T04:13:29.743Z,65.85
2023-02-20T04:14:29.746Z,64.98
2023-02-20T04:15:29.749Z,64.59
2023-02-20T04:16:29.780Z,64.43
2023-02-20T04:17:29.750Z,65.76
2023-02-20T04:18:29.759Z,65.77
2023-02-20T04:19:29.756Z,67.40
2023-02-20T04:20:29.761Z,62.23
2023-02-20T04:21:29.774Z,61.12
2023-02-20T04:22:29.764Z,62.48
2023-02-20T04:23:29.779Z,61.84
2023-02-20T04:24:29.763Z,62.67
2023-02-20T04:25:29.762Z,64.19
2023-02-20T04:26:29.762Z,58.76
2023-02-20T04:27:29.769Z,59.87
2023-02-20T04:28:29.749Z,59.83
2023-02-20T04:29:29.755Z,62.57
2023-02-20T04:30:29.892Z,62.64
2023-02-20T04:31:29.789Z,62.89
2023-02-20T04:32:29.749Z,61.35
2023-02-20T04:33:29.742Z,59.52
2023-02-20T04:34:29.752Z,62.76
2023-02-20T04:35:29.766Z,62.69
2023-02-20T04:36:29.744Z,63.56
2023-02-20T04:37:29.734Z,64.17
2023-02-20T04:38:29.760Z,54.21
2023-02-20T04:39:29.724Z,60.79
2023-02-20T04:40:29.721Z,57.06
2023-02-20T04:41:29.712Z,59.02
2023-02-20T04:42:29.714Z,61.08
2023-02-20T04:43:29.724Z,57.33
2023-02-20T04:44:29.710Z,54.57
2023-02-20T04:45:29.716Z,54.18
2023-02-20T04:46:29.770Z,57.72
2023-02-20T04:47:29.706Z,56.58
2023-02-20T04:48:29.709Z,61.63
2023-02-20T04:49:29.713Z,55.28
2023-02-20T04:50:29.710Z,53.07
2023-02-20T04:51:29.709Z,53.93
2023-02-20T04:52:29.721Z,55.00
2023-02-20T04:53:29.726Z,59.85
2023-02-20T04:54:29.732Z,60.07
2023-02-20T04:55:29.726Z,55.96
2023-02-20T04:56:29.718Z,52.48
2023-02-20T04:57:29.719Z,54.38
2023-02-20T04:58:29.734Z,61.58
2023-02-20T04:59:29.726Z,61.46
2023-02-20T05:00:29.735Z,56.04
2023-02-20T05:01:29.818Z,55.81
2023-02-20T05:02:29.727Z,55.78
2023-02-20T05:03:29.730Z,58.41
2023-02-20T05:04:29.802Z,58.88
2023-02-20T05:05:29.747Z,58.99
2023-02-20T05:06:29.741Z,54.66
2023-02-20T05:07:29.745Z,55.11
2023-02-20T05:08:29.737Z,56.20
2023-02-20T05:09:29.727Z,55.80
2023-02-20T05:10:29.730Z,57.39
2023-02-20T05:11:29.729Z,57.82
2023-02-20T05:12:29.733Z,58.33
2023-02-20T05:13:29.735Z,51.53
2023-02-20T05:14:29.721Z,54.92
2023-02-20T05:15:29.758Z,54.84
2023-02-20T05:16:29.717Z,59.11
2023-02-20T05:17:29.706Z,62.10
2023-02-20T05:18:29.713Z,55.78
2023-02-20T05:19:29.709Z,54.50
2023-02-20T05:20:29.710Z,56.13
2023-02-20T05:21:29.710Z,55.49
2023-02-20T05:22:29.715Z,58.77
2023-02-20T05:23:29.710Z,59.49
2023-02-20T05:24:29.715Z,59.85
2023-02-20T05:25:29.701Z,59.98
2023-02-20T05:26:29.718Z,54.96
2023-02-20T05:27:29.737Z,61.87
2023-02-20T05:28:29.722Z,60.34
2023-02-20T05:29:29.732Z,59.75
2023-02-20T05:30:29.777Z,57.16
2023-02-20T05:31:29.786Z,59.31
2023-02-20T05:32:29.707Z,59.88
2023-02-20T05:33:29.716Z,60.47
2023-02-20T05:34:29.711Z,64.16
2023-02-20T05:35:29.709Z,60.96
2023-02-20T05:36:29.719Z,61.23
2023-02-20T05:37:29.851Z,63.10
2023-02-20T05:38:29.714Z,63.35
2023-02-20T05:39:29.704Z,57.92
2023-02-20T05:40:29.710Z,62.99
2023-02-20T05:41:29.706Z,60.94
2023-02-20T05:42:29.703Z,57.44
2023-02-20T05:43:29.727Z,57.81
2023-02-20T05:44:29.713Z,58.51
2023-02-20T05:45:29.700Z,59.69
2023-02-20T05:46:29.772Z,61.52
2023-02-20T05:47:29.695Z,62.14
2023-02-20T05:48:29.702Z,60.33
2023-02-20T05:49:29.703Z,64.18
2023-02-20T05:50:29.704Z,62.72
2023-02-20T05:51:29.699Z,65.84
2023-02-20T05:52:29.700Z,62.33
2023-02-20T05:53:29.704Z,57.62
2023-02-20T05:54:29.716Z,59.21
2023-02-20T05:55:29.708Z,60.35
2023-02-20T05:56:29.713Z,62.88
2023-02-20T05:57:29.713Z,63.47
2023-02-20T05:58:29.744Z,60.04
2023-02-20T05:59:29.721Z,58.75
2023-02-20T06:00:29.731Z,61.61
2023-02-20T06:01:29.719Z,59.12
2023-02-20T06:02:29.723Z,59.65
2023-02-20T06:03:29.748Z,64.32
2023-02-20T06:04:29.796Z,59.99
2023-02-20T06:05:29.749Z,60.39
2023-02-20T06:06:29.750Z,59.83
2023-02-20T06:07:29.739Z,61.24
2023-02-20T06:08:29.742Z,60.14
2023-02-20T06:09:29.746Z,60.79
2023-02-20T06:10:29.755Z,60.00
2023-02-20T06:11:29.754Z,52.75
2023-02-20T06:12:29.764Z,55.91
2023-02-20T06:13:29.763Z,59.50
2023-02-20T06:14:29.785Z,57.67
2023-02-20T06:15:29.773Z,56.27
2023-02-20T06:16:29.799Z,55.57
2023-02-20T06:17:29.790Z,57.12
2023-02-20T06:18:29.780Z,60.65
2023-02-20T06:19:29.786Z,56.78
2023-02-20T06:20:29.784Z,56.16
2023-02-20T06:21:29.788Z,54.19
2023-02-20T06:22:29.793Z,54.23
2023-02-20T06:23:29.790Z,54.05
2023-02-20T06:24:29.824Z,54.27
2023-02-20T06:25:29.810Z,54.75
2023-02-20T06:26:29.803Z,55.98
2023-02-20T06:27:29.815Z,54.27
2023-02-20T06:28:29.841Z,54.11
2023-02-20T06:29:29.851Z,55.24
2023-02-20T06:30:29.901Z,56.55
2023-02-20T06:31:29.910Z,57.71
2023-02-20T06:32:29.860Z,55.89
2023-02-20T06:33:29.922Z,53.78
2023-02-20T06:34:29.876Z,47.81
2023-02-20T06:35:29.845Z,47.84
2023-02-20T06:36:29.855Z,51.26
2023-02-20T06:37:29.840Z,52.66
2023-02-20T06:38:29.846Z,53.92
2023-02-20T06:39:29.858Z,52.79
2023-02-20T06:40:29.852Z,65.51
2023-02-20T06:41:29.851Z,69.77
2023-02-20T06:42:29.852Z,69.17
2023-02-20T06:43:29.849Z,70.42
2023-02-20T06:44:29.865Z,72.50
2023-02-20T06:45:29.869Z,77.42
2023-02-20T06:46:29.909Z,81.31
2023-02-20T06:47:29.844Z,95.39
2023-02-20T06:48:29.878Z,102.48
2023-02-20T06:49:29.852Z,112.46
2023-02-20T06:50:29.854Z,123.03
2023-02-20T06:51:29.847Z,127.77
2023-02-20T06:52:29.854Z,137.78
2023-02-20T06:53:29.859Z,156.24
2023-02-20T06:54:29.857Z,164.06
2023-02-20T06:55:29.855Z,164.68
2023-02-20T06:56:29.852Z,168.06
2023-02-20T06:57:29.821Z,165.52
2023-02-20T06:58:29.832Z,171.48
2023-02-20T06:59:29.831Z,184.03
2023-02-20T07:00:29.821Z,204.10
2023-02-20T07:01:29.796Z,233.58
2023-02-20T07:02:29.773Z,239.17
2023-02-20T07:03:29.758Z,243.45
2023-02-20T07:04:29.943Z,246.10
2023-02-20T07:05:29.736Z,250.00
2023-02-20T07:06:29.704Z,248.94
2023-02-20T07:07:29.695Z,248.52
2023-02-20T07:08:29.670Z,245.34
2023-02-20T07:09:29.674Z,250.00
2023-02-20T07:10:29.677Z,250.00
2023-02-20T07:11:29.644Z,247.97
2023-02-20T07:12:29.628Z,249.70
2023-02-20T07:13:30.353Z,245.51
2023-02-20T07:14:29.568Z,250.00
2023-02-20T07:15:29.578Z,249.76
2023-02-20T07:16:29.541Z,249.65
2023-02-20T07:17:29.545Z,250.00
2023-02-20T07:18:29.510Z,248.81
2023-02-20T07:19:29.480Z,246.70
2023-02-20T07:20:29.475Z,249.92
2023-02-20T07:21:29.453Z,250.17
2023-02-20T07:22:29.449Z,251.69
2023-02-20T07:23:29.413Z,254.93
2023-02-20T07:24:29.386Z,257.92
2023-02-20T07:25:29.392Z,262.87
2023-02-20T07:26:29.371Z,248.57
2023-02-20T07:27:29.322Z,248.39
2023-02-20T07:28:29.286Z,248.64
2023-02-20T07:29:29.261Z,249.12
2023-02-20T07:30:29.320Z,248.91
2023-02-20T07:31:29.373Z,249.90
2023-02-20T07:32:29.247Z,255.42
2023-02-20T07:33:29.197Z,249.75
2023-02-20T07:34:29.156Z,248.77
2023-02-20T07:35:29.126Z,245.87
2023-02-20T07:36:29.092Z,248.75
2023-02-20T07:37:29.074Z,248.94
2023-02-20T07:38:29.037Z,249.82
2023-02-20T07:39:29.008Z,252.39
2023-02-20T07:40:29.026Z,255.93
2023-02-20T07:41:28.962Z,256.28
2023-02-20T07:42:28.953Z,249.79
2023-02-20T07:43:28.894Z,248.86
2023-02-20T07:44:28.869Z,250.44
2023-02-20T07:45:28.859Z,249.42
2023-02-20T07:46:28.813Z,245.78
2023-02-20T07:47:28.814Z,239.69
2023-02-20T07:48:28.762Z,236.22
2023-02-20T07:49:28.733Z,237.84
2023-02-20T07:50:28.761Z,243.98
2023-02-20T07:51:28.683Z,246.53
2023-02-20T07:52:29.555Z,243.61
2023-02-20T07:53:28.644Z,238.76
2023-02-20T07:54:28.750Z,236.94
2023-02-20T07:55:28.606Z,237.47
2023-02-20T07:56:28.582Z,241.26
2023-02-20T07:57:28.655Z,241.98
2023-02-20T07:58:28.522Z,243.52
2023-02-20T07:59:28.508Z,237.41
2023-02-20T08:00:28.538Z,236.37
2023-02-20T08:01:28.481Z,236.53
2023-02-20T08:02:28.452Z,241.60
2023-02-20T08:03:28.376Z,241.79
2023-02-20T08:04:28.360Z,241.77
2023-02-20T08:05:30.925Z,239.77
2023-02-20T08:06:28.322Z,237.78
2023-02-20T08:07:28.419Z,238.80
2023-02-20T08:08:28.250Z,241.24
2023-02-20T08:09:28.226Z,240.86
2023-02-20T08:10:28.310Z,237.26
2023-02-20T08:11:28.162Z,232.51
2023-02-20T08:12:28.236Z,229.03
2023-02-20T08:13:28.088Z,230.29
2023-02-20T08:14:28.060Z,230.52
2023-02-20T08:15:28.032Z,231.12
2023-02-20T08:16:28.110Z,230.71
2023-02-20T08:17:44.264Z,230.40
2023-02-20T08:18:28.977Z,230.43
2023-02-20T08:19:27.933Z,230.98
2023-02-20T08:20:28.004Z,231.76
2023-02-20T08:21:27.902Z,232.57
2023-02-20T08:22:40.017Z,229.55
2023-02-20T08:23:28.830Z,228.50
2023-02-20T08:24:28.594Z,230.35
2023-02-20T08:25:27.773Z,230.60
2023-02-20T08:26:27.799Z,230.92
2023-02-20T08:27:27.718Z,228.13
2023-02-20T08:28:27.683Z,230.32
2023-02-20T08:29:27.645Z,226.13
2023-02-20T08:30:27.758Z,220.94
2023-02-20T08:31:32.568Z,223.64
2023-02-20T08:32:28.703Z,226.80
2023-02-20T08:33:27.537Z,222.19
2023-02-20T08:34:27.480Z,217.75
2023-02-20T08:35:27.484Z,211.18
2023-02-20T08:36:27.412Z,213.05
2023-02-20T08:37:27.382Z,218.37
2023-02-20T08:38:27.376Z,221.11
2023-02-20T08:39:27.302Z,217.41
2023-02-20T08:40:27.348Z,214.12
2023-02-20T08:41:27.240Z,212.34
2023-02-20T08:42:27.182Z,210.39
2023-02-20T08:43:28.257Z,210.66
2023-02-20T08:44:27.113Z,210.93
2023-02-20T08:45:27.183Z,214.54
2023-02-20T08:46:27.026Z,212.34
2023-02-20T08:47:26.998Z,210.44
2023-02-20T08:48:26.968Z,217.73
2023-02-20T08:49:27.316Z,216.72
2023-02-20T08:50:26.938Z,218.27
2023-02-20T08:51:26.856Z,218.05
2023-02-20T08:52:26.870Z,212.48
2023-02-20T08:53:26.792Z,229.56
2023-02-20T08:54:26.747Z,230.64
2023-02-20T08:55:26.721Z,231.47
2023-02-20T08:56:26.684Z,224.46
2023-02-20T08:57:26.634Z,220.08
2023-02-20T08:58:26.596Z,220.97
2023-02-20T08:59:26.574Z,218.84
2023-02-20T09:00:26.558Z,210.29
2023-02-20T09:01:26.573Z,192.61
2023-02-20T09:02:26.464Z,193.22
2023-02-20T09:03:26.421Z,191.26
2023-02-20T09:04:26.395Z,202.44
2023-02-20T09:05:26.396Z,171.29
2023-02-20T09:06:26.388Z,176.99
2023-02-20T09:07:26.302Z,199.47
2023-02-20T09:08:26.331Z,200.27
2023-02-20T09:09:26.259Z,192.73
2023-02-20T09:10:26.191Z,170.44
2023-02-20T09:11:26.165Z,162.60
2023-02-20T09:12:26.128Z,160.06
2023-02-20T09:13:26.107Z,160.19
2023-02-20T09:14:26.095Z,155.44
2023-02-20T09:15:26.008Z,132.00
2023-02-20T09:16:26.029Z,102.27
2023-02-20T09:17:26.049Z,93.28
2023-02-20T09:18:25.932Z,112.35
2023-02-20T09:19:25.978Z,115.32
2023-02-20T09:20:25.844Z,116.16
2023-02-20T09:21:25.984Z,101.08
2023-02-20T09:22:25.849Z,101.57
2023-02-20T09:23:25.755Z,96.93
2023-02-20T09:24:25.761Z,89.07
2023-02-20T09:25:25.683Z,89.26
2023-02-20T09:26:25.642Z,90.32
2023-02-20T09:27:25.613Z,39.12
2023-02-20T09:28:25.634Z,0.00
2023-02-20T09:29:25.570Z,0.00
2023-02-20T09:30:25.691Z,0.00
2023-02-20T09:31:25.581Z,36.17
2023-02-20T09:32:25.558Z,0.00
2023-02-20T09:33:25.562Z,0.00
2023-02-20T09:34:25.462Z,0.00
2023-02-20T09:35:25.416Z,0.00
2023-02-20T09:36:25.388Z,0.00
2023-02-20T09:37:25.378Z,24.73
2023-02-20T09:38:25.356Z,56.34
2023-02-20T09:39:25.338Z,56.96
2023-02-20T09:40:25.335Z,59.43
2023-02-20T09:41:25.329Z,56.30
2023-02-20T09:42:25.271Z,62.96
2023-02-20T09:43:25.268Z,26.06
2023-02-20T09:44:25.233Z,7.34
2023-02-20T09:45:25.233Z,4.66
2023-02-20T09:46:25.258Z,18.50
2023-02-20T09:47:25.197Z,12.31
2023-02-20T09:48:25.167Z,9.25
2023-02-20T09:49:25.228Z,11.27
2023-02-20T09:50:25.169Z,40.69
2023-02-20T09:51:25.134Z,70.17
2023-02-20T09:52:25.110Z,81.41
2023-02-20T09:53:25.083Z,82.24
2023-02-20T09:54:25.068Z,87.82
2023-02-20T09:55:25.044Z,94.67
2023-02-20T09:56:25.015Z,94.90
2023-02-20T09:57:24.998Z,96.01
2023-02-20T09:58:24.967Z,100.08
2023-02-20T09:59:24.933Z,106.67
2023-02-20T10:00:24.889Z,116.75
2023-02-20T10:01:24.851Z,123.40
2023-02-20T10:02:24.885Z,128.65
2023-02-20T10:03:24.827Z,132.42
2023-02-20T10:04:24.757Z,135.92
2023-02-20T10:05:24.727Z,138.60
2023-02-20T10:06:24.694Z,141.71
2023-02-20T10:07:24.673Z,144.84
2023-02-20T10:08:24.619Z,147.26
2023-02-20T10:09:24.653Z,150.28
2023-02-20T10:10:24.573Z,152.05
2023-02-20T10:11:24.521Z,153.39
2023-02-20T10:12:24.483Z,157.17
2023-02-20T10:13:24.453Z,155.46
2023-02-20T10:14:24.405Z,157.83
2023-02-20T10:15:24.365Z,160.71
2023-02-20T10:16:24.377Z,161.04
2023-02-20T10:17:24.291Z,163.87
2023-02-20T10:18:24.249Z,165.08
2023-02-20T10:19:24.272Z,165.13
2023-02-20T10:20:24.207Z,165.45
2023-02-20T10:21:24.129Z,166.04
2023-02-20T10:22:24.085Z,167.04
2023-02-20T10:23:24.063Z,168.94
2023-02-20T10:24:24.001Z,165.35
2023-02-20T10:25:23.982Z,165.34
2023-02-20T10:26:23.935Z,166.20
2023-02-20T10:27:23.902Z,167.66
2023-02-20T10:28:23.868Z,170.35
2023-02-20T10:29:23.820Z,173.51
2023-02-20T10:30:23.829Z,175.29
2023-02-20T10:31:23.814Z,172.84
2023-02-20T10:32:23.704Z,172.80
2023-02-20T10:33:23.672Z,172.69
2023-02-20T10:34:23.627Z,172.70
2023-02-20T10:35:23.608Z,172.07
2023-02-20T10:36:23.563Z,168.52
2023-02-20T10:37:23.528Z,170.12
2023-02-20T10:38:23.507Z,170.63
2023-02-20T10:39:23.534Z,166.94
2023-02-20T10:40:23.430Z,162.57
2023-02-20T10:41:23.407Z,156.16
2023-02-20T10:42:23.362Z,155.78
2023-02-20T10:43:23.434Z,160.62
2023-02-20T10:44:23.301Z,161.42
2023-02-20T10:45:23.262Z,164.03
2023-02-20T10:46:23.285Z,160.85
2023-02-20T10:47:23.205Z,158.51
2023-02-20T10:48:23.173Z,156.73
2023-02-20T10:49:23.122Z,158.57
2023-02-20T10:50:23.102Z,153.17
2023-02-20T10:51:23.057Z,153.17
2023-02-20T10:52:33.662Z,151.25
2023-02-20T10:53:23.973Z,153.19
2023-02-20T10:54:22.923Z,153.30
2023-02-20T10:55:22.889Z,153.86
2023-02-20T10:56:22.861Z,155.20
2023-02-20T10:57:22.904Z,153.34
2023-02-20T10:58:22.946Z,153.79
2023-02-20T10:59:23.067Z,154.05
2023-02-20T11:00:22.729Z,156.70
2023-02-20T11:01:22.752Z,159.68
2023-02-20T11:02:22.695Z,158.49
2023-02-20T11:03:22.573Z,159.36
2023-02-20T11:04:22.630Z,157.95
2023-02-20T11:05:22.515Z,157.57
2023-02-20T11:06:22.465Z,157.68
2023-02-20T11:07:22.437Z,158.30
2023-02-20T11:08:22.382Z,157.99
2023-02-20T11:09:22.329Z,158.38
2023-02-20T11:10:22.297Z,160.19
2023-02-20T11:11:22.249Z,160.68
2023-02-20T11:12:22.255Z,159.93
2023-02-20T11:13:22.164Z,155.49
2023-02-20T11:14:34.127Z,155.39
2023-02-20T11:15:23.072Z,155.54
2023-02-20T11:16:22.037Z,155.44
2023-02-20T11:17:21.984Z,155.29
2023-02-20T11:18:21.977Z,151.55
2023-02-20T11:19:21.955Z,154.34
2023-02-20T11:20:21.852Z,154.74
2023-02-20T11:21:21.803Z,153.47
2023-02-20T11:22:21.866Z,159.71
2023-02-20T11:23:21.779Z,158.29
2023-02-20T11:24:21.698Z,158.55
2023-02-20T11:25:21.672Z,159.75
2023-02-20T11:26:21.657Z,160.08
2023-02-20T11:27:21.560Z,160.55
2023-02-20T11:28:21.510Z,160.66
2023-02-20T11:29:21.507Z,158.64
2023-02-20T11:30:21.434Z,153.89
2023-02-20T11:31:21.456Z,154.35
2023-02-20T11:32:21.325Z,153.49
2023-02-20T11:33:21.333Z,158.40
2023-02-20T11:34:21.245Z,164.57
2023-02-20T11:35:21.203Z,164.16
2023-02-20T11:36:21.486Z,169.76
2023-02-20T11:37:21.117Z,172.54
2023-02-20T11:38:21.098Z,176.37
2023-02-20T11:39:21.084Z,174.36
2023-02-20T11:40:21.002Z,167.59
2023-02-20T11:41:20.934Z,171.01
2023-02-20T11:42:20.917Z,178.13
2023-02-20T11:43:20.872Z,178.70
2023-02-20T11:44:20.752Z,180.44
2023-02-20T11:45:20.706Z,182.66
2023-02-20T11:46:20.680Z,182.81
2023-02-20T11:47:20.584Z,182.72
2023-02-20T11:48:20.530Z,180.35
2023-02-20T11:49:20.454Z,182.02
2023-02-20T11:50:21.108Z,183.15
2023-02-20T11:51:20.321Z,178.78
2023-02-20T11:52:20.269Z,171.15
2023-02-20T11:53:20.200Z,172.35
2023-02-20T11:54:20.138Z,167.26
2023-02-20T11:55:20.072Z,167.37
2023-02-20T11:56:20.022Z,167.57
2023-02-20T11:57:19.936Z,167.57
2023-02-20T11:58:19.951Z,165.95
2023-02-20T11:59:19.798Z,165.78
2023-02-20T12:00:19.746Z,162.54
2023-02-20T12:01:19.696Z,161.54
2023-02-20T12:02:19.619Z,159.47
2023-02-20T12:03:19.632Z,159.38
2023-02-20T12:04:19.522Z,157.31
2023-02-20T12:05:19.519Z,157.30
2023-02-20T12:06:19.423Z,152.93
2023-02-20T12:07:19.290Z,154.53
2023-02-20T12:08:19.230Z,158.70
2023-02-20T12:09:19.182Z,160.34
2023-02-20T12:10:19.132Z,161.68
2023-02-20T12:11:19.054Z,158.89
2023-02-20T12:12:19.018Z,155.30
2023-02-20T12:13:18.948Z,135.17
2023-02-20T12:14:18.887Z,124.30
2023-02-20T12:15:18.832Z,115.47
2023-02-20T12:16:18.844Z,111.16
2023-02-20T12:17:18.734Z,111.88
2023-02-20T12:18:18.686Z,105.14
2023-02-20T12:19:18.623Z,105.78
2023-02-20T12:20:18.561Z,107.37
2023-02-20T12:21:18.497Z,112.09
2023-02-20T12:22:18.452Z,114.40
2023-02-20T12:23:18.413Z,117.57
2023-02-20T12:24:18.387Z,116.58
2023-02-20T12:25:18.285Z,108.41
2023-02-20T12:26:18.215Z,102.77
2023-02-20T12:27:18.171Z,108.12
2023-02-20T12:28:18.136Z,106.66
2023-02-20T12:29:18.061Z,118.22
2023-02-20T12:30:18.062Z,117.97
2023-02-20T12:31:18.042Z,119.76
2023-02-20T12:32:18.023Z,123.37
2023-02-20T12:33:17.891Z,118.30
2023-02-20T12:34:17.858Z,121.21
2023-02-20T12:35:17.786Z,127.45
2023-02-20T12:36:17.743Z,136.12
2023-02-20T12:37:17.693Z,150.33
2023-02-20T12:38:17.665Z,152.16
2023-02-20T12:39:17.607Z,155.55